Time;durP1;ratioP1;P1;durP2;ratioP2;P2;SDS_P1;SDS_P2;PMS_P1;PMS_P2;Temp;Humidity;BMP_temperature;BMP_pressure;BME280_temperature;BME280_humidity;BME280_pressure;Samples;Min_cycle;Max_cycle;Signal;HPM_P1;HPM_P2
2022/02/10 00:17:28;;;;;;;1.55;1.15;;;-5.00;99.90;;;;;;5012620;28;20052;-74
2022/02/10 00:20:21;;;;;;;2.97;1.02;;;-5.10;99.90;;;;;;5012368;28;20026;-74
2022/02/10 00:36:37;;;;;;;2.03;1.10;;;-5.00;99.90;;;;;;5012359;28;20543;-74
2022/02/10 00:39:21;;;;;;;1.00;1.00;;;-5.00;99.90;;;;;;5012218;28;20493;-73
2022/02/10 00:41:47;;;;;;;2.70;1.10;;;-5.10;99.90;;;;;;5012077;28;20037;-74
2022/02/10 00:44:13;;;;;;;1.98;1.10;;;-5.10;99.90;;;;;;5011920;28;20055;-74
2022/02/10 00:46:39;;;;;;;4.35;1.40;;;-5.10;99.90;;;;;;5012019;28;20555;-76
2022/02/10 00:49:04;;;;;;;2.05;1.02;;;-5.10;99.90;;;;;;5011910;28;20036;-76
2022/02/10 00:51:30;;;;;;;2.55;1.23;;;-5.00;99.90;;;;;;5011865;28;20033;-74
2022/02/10 00:53:56;;;;;;;1.38;1.10;;;-4.90;99.90;;;;;;5012009;28;20025;-74
2022/02/10 00:56:21;;;;;;;4.68;1.23;;;-4.80;99.90;;;;;;5011750;28;20520;-73
2022/02/10 00:58:57;;;;;;;1.42;1.33;;;-4.60;99.90;;;;;;5010832;28;20462;-73
2022/02/10 01:13:23;;;;;;;1.33;0.90;;;-4.20;99.90;;;;;;5011718;28;20069;-74
2022/02/10 01:31:29;;;;;;;1.15;1.02;;;-3.40;99.90;;;;;;5011584;28;20040;-74
2022/02/10 01:33:55;;;;;;;2.63;1.00;;;-3.30;99.90;;;;;;5011586;28;20018;-74
2022/02/10 01:36:20;;;;;;;5.15;1.30;;;-3.20;99.90;;;;;;5011691;28;20026;-74
2022/02/10 01:38:46;;;;;;;3.10;1.15;;;-3.20;99.90;;;;;;5013301;28;20505;-73
2022/02/10 01:57:47;;;;;;;4.85;0.80;;;-2.70;99.90;;;;;;5014804;28;20080;-73
2022/02/10 02:03:22;;;;;;;2.20;1.00;;;-2.60;99.90;;;;;;5014827;28;20080;-77
2022/02/10 02:08:41;;;;;;;4.80;1.42;;;-2.40;99.90;;;;;;5013344;28;20393;-73
2022/02/10 02:11:07;;;;;;;3.17;1.00;;;-2.30;99.90;;;;;;5014593;28;20018;-73
2022/02/10 02:13:34;;;;;;;7.35;1.20;;;-2.20;99.90;;;;;;5014398;28;20366;-73
2022/02/10 02:16:01;;;;;;;0.90;0.80;;;-2.20;99.90;;;;;;5014762;28;20030;-73
2022/02/10 02:18:26;;;;;;;4.60;1.00;;;-2.10;99.90;;;;;;5014279;28;20029;-73
2022/02/10 02:20:55;;;;;;;2.50;0.95;;;-2.10;99.90;;;;;;5013192;28;20029;-74
2022/02/10 02:23:23;;;;;;;4.18;0.90;;;-2.00;99.90;;;;;;5014279;28;20026;-73
2022/02/10 04:09:52;;;;;;;0.80;0.80;;;-1.10;99.90;;;;;;5052287;28;20039;-76
2022/02/10 04:15:03;;;;;;;0.70;0.70;;;-1.20;99.90;;;;;;5052182;28;20163;-76
2022/02/10 04:23:31;;;;;;;0.85;0.70;;;-1.20;99.90;;;;;;5051918;28;20120;-76
2022/02/10 04:55:42;;;;;;;0.60;0.60;;;-1.20;99.90;;;;;;5032118;28;20079;-73
2022/02/10 04:58:16;;;;;;;2.72;0.88;;;-1.10;99.90;;;;;;5031437;28;20040;-73
2022/02/10 05:33:51;;;;;;;1.55;0.90;;;-1.40;99.90;;;;;;5035247;28;20045;-72
2022/02/10 05:36:20;;;;;;;1.65;0.80;;;-1.50;99.90;;;;;;5034864;28;20021;-74
2022/02/10 05:39:12;;;;;;;1.55;0.90;;;-1.50;99.90;;;;;;5034732;28;20053;-75
2022/02/10 05:44:46;;;;;;;1.58;0.75;;;0.50;99.90;;;;;;5034818;28;20033;-71
2022/02/10 05:49:53;;;;;;;1.90;0.80;;;-0.20;99.90;;;;;;5033795;28;20038;-79
2022/02/10 06:54:37;;;;;;;2.80;1.20;;;-2.80;99.90;;;;;;5033730;28;20120;-77
2022/02/10 06:57:38;;;;;;;1.98;1.27;;;-2.80;99.90;;;;;;5033335;28;20398;-74
2022/02/10 07:48:58;;;;;;;;;;;-2.10;99.90;;;;;;5032366;28;20104;-70
2022/02/10 08:56:55;;;;;;;0.70;0.70;;;-1.10;99.90;;;;;;5035543;28;20083;-65
2022/02/10 09:01:33;;;;;;;1.13;0.80;;;-1.00;99.90;;;;;;5034909;28;20465;-65
2022/02/10 09:47:34;;;;;;;2.25;0.88;;;-0.50;99.90;;;;;;5015333;28;20037;-68
2022/02/10 10:00:55;;;;;;;4.75;1.23;;;0.40;99.90;;;;;;5030587;28;20088;-68
2022/02/10 10:06:00;;;;;;;2.50;0.98;;;0.40;99.90;;;;;;5019944;28;20053;-68
2022/02/10 10:08:37;;;;;;;3.42;0.90;;;0.40;99.90;;;;;;5034044;28;20092;-67
2022/02/10 10:14:24;;;;;;;0.70;0.70;;;0.50;99.90;;;;;;5033048;28;20076;-68
2022/02/10 10:19:49;;;;;;;2.97;0.93;;;0.60;99.90;;;;;;5014211;28;20022;-68
2022/02/10 10:23:20;;;;;;;2.80;0.75;;;0.70;99.90;;;;;;5014196;28;20032;-68
2022/02/10 10:26:13;;;;;;;2.05;0.95;;;0.70;99.90;;;;;;5014280;28;20445;-68
2022/02/10 10:59:10;;;;;;;1.08;0.60;;;1.40;99.90;;;;;;5033085;28;20029;-69
2022/02/10 12:29:14;;;;;;;0.65;0.60;;;2.00;99.90;;;;;;5032716;28;20045;-68
2022/02/10 12:42:03;;;;;;;3.22;0.70;;;2.00;99.90;;;;;;5031919;28;20022;-71
2022/02/10 14:15:22;;;;;;;1.13;0.60;;;2.20;99.90;;;;;;5032486;28;20028;-70
2022/02/10 14:18:02;;;;;;;2.65;0.70;;;2.20;99.90;;;;;;5033760;28;20032;-70
2022/02/10 14:28:12;;;;;;;0.60;0.57;;;2.20;99.90;;;;;;5033881;28;20017;-70
2022/02/10 14:30:39;;;;;;;1.27;0.68;;;2.20;99.90;;;;;;5033493;28;20384;-70
2022/02/10 14:33:05;;;;;;;0.70;0.65;;;2.20;99.90;;;;;;5033569;28;20107;-70
2022/02/10 14:36:18;;;;;;;0.55;0.55;;;2.20;99.90;;;;;;5033353;28;20022;-70
2022/02/10 15:11:17;;;;;;;1.63;0.70;;;2.00;99.90;;;;;;5032171;28;20561;-70
2022/02/10 15:29:14;;;;;;;4.30;1.95;;;1.90;99.90;;;;;;5032927;28;20455;-71
2022/02/10 16:10:58;;;;;;;0.70;0.50;;;1.70;99.90;;;;;;5012723;28;20080;-69
2022/02/10 16:18:51;;;;;;;1.83;0.65;;;1.60;99.90;;;;;;5012509;28;20120;-71
2022/02/10 16:21:28;;;;;;;1.15;0.90;;;1.90;99.90;;;;;;5012460;28;20046;-69
2022/02/10 16:24:00;;;;;;;1.83;0.60;;;1.80;99.90;;;;;;5012492;28;20026;-68
2022/02/10 16:26:38;;;;;;;2.05;0.70;;;1.80;99.90;;;;;;5012729;28;20038;-69
2022/02/10 16:29:05;;;;;;;0.60;0.60;;;1.90;99.90;;;;;;5012762;28;20443;-69
2022/02/10 16:31:30;;;;;;;3.55;0.80;;;1.90;99.90;;;;;;5012324;28;20037;-68
2022/02/10 16:33:57;;;;;;;1.80;0.60;;;1.80;99.90;;;;;;5012125;28;20033;-68
2022/02/10 16:36:30;;;;;;;2.85;0.70;;;1.80;99.90;;;;;;5011574;28;20081;-68
2022/02/10 16:38:56;;;;;;;1.63;0.70;;;1.70;99.90;;;;;;5011835;28;20092;-68
2022/02/10 16:41:22;;;;;;;2.15;0.50;;;1.70;99.90;;;;;;5011605;28;20100;-70
2022/02/10 16:43:48;;;;;;;2.72;1.27;;;1.70;99.90;;;;;;5011963;28;20028;-67
2022/02/10 16:46:14;;;;;;;1.48;0.77;;;1.60;99.90;;;;;;5012007;28;20395;-68
2022/02/10 16:48:40;;;;;;;3.50;0.90;;;1.60;99.90;;;;;;5011803;28;20080;-68
2022/02/10 16:51:10;;;;;;;1.27;0.65;;;1.50;99.90;;;;;;5018679;28;20014;-68
2022/02/10 16:53:41;;;;;;;1.50;0.90;;;1.50;99.90;;;;;;5031547;28;20071;-68
2022/02/10 16:56:12;;;;;;;3.95;0.70;;;1.50;99.90;;;;;;5030823;28;20473;-68
2022/02/10 16:58:49;;;;;;;1.55;0.85;;;1.40;99.90;;;;;;5031902;28;20037;-67
2022/02/10 17:25:34;;;;;;;2.03;0.73;;;1.30;99.90;;;;;;5035258;28;20107;-67
2022/02/10 17:27:54;;;;;;;1.85;0.80;;;1.30;99.90;;;;;;5035039;28;20048;-67
2022/02/10 17:53:48;;;;;;;4.15;1.58;;;1.30;99.90;;;;;;5035208;28;20030;-68
2022/02/10 17:56:14;;;;;;;2.05;1.25;;;1.30;99.90;;;;;;5034797;28;20056;-68
2022/02/10 17:58:40;;;;;;;6.03;2.42;;;1.30;99.90;;;;;;5034736;28;20425;-68
2022/02/10 18:01:08;;;;;;;21.00;10.80;;;1.30;99.90;;;;;;5034916;28;20028;-68
2022/02/10 18:03:34;;;;;;;5.22;2.17;;;1.30;99.90;;;;;;5034659;28;20060;-68
2022/02/10 18:09:28;;;;;;;2.80;1.25;;;1.30;99.90;;;;;;5034158;28;20107;-68
2022/02/10 18:16:33;;;;;;;2.15;0.70;;;1.30;99.90;;;;;;5014914;28;20026;-68
2022/02/10 18:19:49;;;;;;;1.33;0.80;;;1.30;99.90;;;;;;5014778;28;20026;-68
2022/02/10 19:09:47;;;;;;;1.60;0.90;;;1.10;99.90;;;;;;5033470;28;20080;-68
2022/02/10 19:12:21;;;;;;;2.38;0.90;;;1.10;99.90;;;;;;5033331;28;20036;-68
2022/02/10 19:15:07;;;;;;;3.30;0.80;;;1.00;99.90;;;;;;5033326;28;20104;-67
2022/02/10 19:17:33;;;;;;;3.28;1.25;;;1.00;99.90;;;;;;5033646;28;20061;-68
2022/02/10 19:19:59;;;;;;;3.25;0.90;;;1.00;99.90;;;;;;5033018;28;20076;-68
2022/02/10 19:22:26;;;;;;;2.65;0.90;;;1.00;99.90;;;;;;5031906;28;20052;-68
2022/02/10 19:24:54;;;;;;;4.90;1.10;;;1.00;99.90;;;;;;5032919;28;20033;-68
2022/02/10 19:27:22;;;;;;;1.65;1.10;;;0.90;99.90;;;;;;5032905;28;20393;-68
2022/02/10 19:29:49;;;;;;;3.65;0.95;;;0.90;99.90;;;;;;5032924;28;20079;-67
2022/02/10 19:32:18;;;;;;;4.55;1.27;;;0.90;99.90;;;;;;5032040;28;20026;-67
2022/02/10 19:34:46;;;;;;;1.73;0.90;;;0.90;99.90;;;;;;5048326;28;20052;-67
2022/02/10 19:37:14;;;;;;;6.93;2.95;;;0.90;99.90;;;;;;5029522;28;20022;-67
2022/02/10 19:39:42;;;;;;;11.10;6.40;;;0.90;99.90;;;;;;5033090;28;20037;-67
2022/02/10 19:42:09;;;;;;;16.63;7.97;;;0.80;99.90;;;;;;5032933;28;20053;-67
2022/02/10 19:44:37;;;;;;;17.80;8.23;;;0.80;99.90;;;;;;5032815;28;20017;-67
2022/02/10 19:47:03;;;;;;;9.80;3.97;;;0.80;99.90;;;;;;5032590;28;20056;-68
2022/02/10 19:49:31;;;;;;;10.75;5.57;;;0.80;99.90;;;;;;5031502;28;20112;-68
2022/02/10 19:51:57;;;;;;;3.47;1.35;;;0.80;99.90;;;;;;5032388;28;20033;-68
2022/02/10 19:54:26;;;;;;;5.45;1.88;;;0.80;99.90;;;;;;5032977;28;20112;-68
2022/02/10 19:56:54;;;;;;;3.70;2.00;;;0.80;99.90;;;;;;5032177;28;20029;-68
2022/02/10 19:59:25;;;;;;;7.45;1.60;;;1.00;99.90;;;;;;5032305;28;20111;-64
2022/02/10 20:01:52;;;;;;;3.03;1.27;;;1.10;99.90;;;;;;5031897;28;20053;-65
2022/02/10 20:04:19;;;;;;;4.13;1.05;;;1.00;99.90;;;;;;5032444;28;20108;-65
2022/02/10 20:06:46;;;;;;;4.13;1.45;;;1.00;99.90;;;;;;5032253;28;20520;-65
2022/02/10 20:09:11;;;;;;;2.17;1.67;;;0.90;99.90;;;;;;5032413;28;20400;-65
2022/02/10 20:11:38;;;;;;;2.00;1.38;;;0.80;99.90;;;;;;5032289;28;20023;-65
2022/02/10 20:14:03;;;;;;;4.63;2.13;;;0.80;99.90;;;;;;5031846;28;20484;-69
2022/02/10 20:16:29;;;;;;;3.30;1.40;;;0.70;99.90;;;;;;5032275;28;20018;-69
2022/02/10 20:18:55;;;;;;;5.30;1.33;;;0.70;99.90;;;;;;5032406;28;20021;-67
2022/02/10 20:21:21;;;;;;;5.82;1.10;;;0.70;99.90;;;;;;5030148;28;20492;-68
2022/02/10 20:23:47;;;;;;;4.85;1.30;;;0.70;99.90;;;;;;5030921;28;20110;-68
2022/02/10 20:26:14;;;;;;;5.53;1.35;;;0.60;99.90;;;;;;5030119;28;20025;-69
2022/02/10 20:28:41;;;;;;;2.17;1.40;;;0.60;99.90;;;;;;5031262;28;20025;-69
2022/02/10 20:31:08;;;;;;;3.30;1.35;;;0.60;99.90;;;;;;5031938;28;20076;-68
2022/02/10 20:33:34;;;;;;;1.98;1.10;;;0.60;99.90;;;;;;5027377;28;20049;-69
2022/02/10 20:36:03;;;;;;;2.83;0.90;;;0.50;99.90;;;;;;5023754;28;20017;-68
2022/02/10 20:38:30;;;;;;;3.85;0.90;;;0.50;99.90;;;;;;5031859;28;20463;-69
2022/02/10 20:41:03;;;;;;;3.15;1.05;;;0.50;99.90;;;;;;5032031;28;20481;-69
2022/02/10 20:43:29;;;;;;;6.60;1.25;;;0.70;99.90;;;;;;5031835;28;20037;-69
2022/02/10 20:46:02;;;;;;;5.57;1.20;;;0.70;99.90;;;;;;5029585;28;20113;-68
2022/02/10 20:48:30;;;;;;;3.47;1.27;;;0.60;99.90;;;;;;5031285;28;20017;-69
2022/02/10 20:50:57;;;;;;;2.15;1.13;;;0.50;99.90;;;;;;5025885;28;20080;-69
2022/02/10 20:53:29;;;;;;;5.03;1.35;;;0.50;99.90;;;;;;5028604;28;20109;-68
2022/02/10 20:55:58;;;;;;;4.70;1.05;;;0.40;99.90;;;;;;5031615;28;20365;-69
2022/02/10 20:58:27;;;;;;;3.38;0.80;;;0.40;99.90;;;;;;5032096;28;20026;-68
2022/02/10 21:00:57;;;;;;;3.13;1.23;;;0.30;99.90;;;;;;5031215;28;20483;-68
2022/02/10 21:03:26;;;;;;;4.47;1.10;;;0.30;99.90;;;;;;5031424;28;20389;-68
2022/02/10 21:06:05;;;;;;;5.70;2.42;;;0.30;99.90;;;;;;5030959;28;20033;-68
2022/02/10 21:10:57;;;;;;;2.92;1.73;;;0.20;99.90;;;;;;5031748;28;20036;-68
2022/02/10 21:13:24;;;;;;;5.85;1.50;;;0.20;99.90;;;;;;5031855;28;20029;-68
2022/02/10 21:15:50;;;;;;;4.90;1.30;;;0.20;99.90;;;;;;5031344;28;20071;-68
2022/02/10 21:18:17;;;;;;;6.03;1.50;;;0.20;99.90;;;;;;5031697;28;20032;-68
2022/02/10 21:20:44;;;;;;;3.35;1.20;;;0.20;99.90;;;;;;5031167;28;20022;-68
2022/02/10 21:23:25;;;;;;;5.43;1.48;;;0.20;99.90;;;;;;5026532;28;20021;-68
2022/02/10 21:25:54;;;;;;;5.55;1.40;;;0.20;99.90;;;;;;5024464;28;20164;-69
2022/02/10 21:28:25;;;;;;;3.15;1.20;;;0.20;99.90;;;;;;5015690;28;20560;-69
2022/02/10 21:30:54;;;;;;;2.35;1.10;;;0.20;99.90;;;;;;5010426;28;20485;-68
2022/02/10 21:33:48;;;;;;;10.25;1.45;;;0.10;99.90;;;;;;5016631;28;20041;-68
2022/02/10 21:39:19;;;;;;;6.05;1.30;;;0.10;99.90;;;;;;5026525;28;20099;-67
2022/02/10 22:06:08;;;;;;;4.78;1.45;;;-0.10;99.90;;;;;;5028428;28;20548;-65
2022/02/10 22:08:40;;;;;;;3.00;1.10;;;-0.10;99.90;;;;;;5014430;28;20080;-65
2022/02/10 22:10:55;;;;;;;8.80;1.42;;;-0.10;99.90;;;;;;5014724;28;20057;-65
2022/02/10 22:16:41;;;;;;;4.22;1.27;;;-0.20;99.90;;;;;;5014515;28;20039;-65
2022/02/10 22:19:11;;;;;;;4.93;1.27;;;-0.20;99.90;;;;;;5014837;28;20116;-65
2022/02/10 22:21:45;;;;;;;;;;;-0.20;99.90;;;;;;5015058;28;20041;-65
2022/02/10 22:24:13;;;;;;;4.95;1.40;;;-0.20;99.90;;;;;;5014446;28;19909;-65
2022/02/10 22:26:41;;;;;;;3.70;1.25;;;-0.20;99.90;;;;;;5014465;28;20053;-65
2022/02/10 22:29:31;;;;;;;3.25;1.20;;;-0.20;99.90;;;;;;5014289;28;20080;-65
2022/02/10 22:32:23;;;;;;;7.50;1.35;;;-0.20;99.90;;;;;;5014403;28;20038;-65
2022/02/10 22:34:53;;;;;;;5.65;0.98;;;-0.20;99.90;;;;;;5014324;28;20030;-65
2022/02/10 22:37:20;;;;;;;3.92;1.30;;;-0.20;99.90;;;;;;5012981;28;20060;-67
2022/02/10 22:39:48;;;;;;;4.38;1.35;;;-0.20;99.90;;;;;;5014263;28;20044;-66
2022/02/10 22:42:15;;;;;;;4.45;1.40;;;-0.20;99.90;;;;;;5014296;28;20038;-66
2022/02/10 22:44:41;;;;;;;6.22;1.13;;;-0.10;99.90;;;;;;5012864;28;20026;-66
2022/02/10 22:47:10;;;;;;;5.82;1.38;;;-0.20;99.90;;;;;;5014197;28;20052;-67
2022/02/10 22:49:36;;;;;;;3.20;1.10;;;-0.20;99.90;;;;;;5014060;28;20025;-67
2022/02/10 22:52:04;;;;;;;4.47;1.08;;;-0.20;99.90;;;;;;5013681;28;20026;-67
2022/02/10 22:54:30;;;;;;;3.60;1.30;;;-0.20;99.90;;;;;;5013955;28;20050;-67
2022/02/10 22:56:56;;;;;;;4.07;1.02;;;-0.20;99.90;;;;;;5013793;28;20026;-67
2022/02/10 22:59:22;;;;;;;8.77;1.20;;;-0.20;99.90;;;;;;5012585;28;20030;-66
2022/02/10 23:01:48;;;;;;;4.20;1.27;;;-0.20;99.90;;;;;;5014116;28;20026;-66
2022/02/10 23:04:14;;;;;;;3.92;1.33;;;-0.20;99.90;;;;;;5019137;28;20147;-66
2022/02/10 23:06:40;;;;;;;5.60;1.15;;;-0.20;99.90;;;;;;5029591;28;20501;-66
2022/02/10 23:11:56;;;;;;;6.03;1.38;;;-0.20;99.90;;;;;;5033488;28;20132;-66
2022/02/10 23:14:21;;;;;;;3.63;1.02;;;-0.20;99.90;;;;;;5033716;28;20029;-66
2022/02/10 23:16:47;;;;;;;2.88;1.23;;;-0.20;99.90;;;;;;5033313;28;20022;-67
2022/02/10 23:19:14;;;;;;;4.30;1.15;;;-0.20;99.90;;;;;;5033287;28;20029;-67
2022/02/10 23:21:40;;;;;;;5.10;1.23;;;-0.20;99.90;;;;;;5033419;28;20021;-67
2022/02/10 23:24:06;;;;;;;6.88;1.23;;;-0.20;99.90;;;;;;5033066;28;20041;-67
2022/02/10 23:26:32;;;;;;;4.78;1.40;;;-0.30;99.90;;;;;;5033105;28;20030;-67
2022/02/10 23:28:59;;;;;;;9.68;1.27;;;-0.30;99.90;;;;;;5033246;28;20052;-67
2022/02/10 23:31:27;;;;;;;4.45;1.27;;;-0.30;99.90;;;;;;5033229;28;20041;-67
2022/02/10 23:33:59;;;;;;;5.93;1.73;;;-0.30;99.90;;;;;;5032877;28;20037;-67
2022/02/10 23:36:48;;;;;;;5.90;1.60;;;-0.40;99.90;;;;;;5032737;28;20048;-66
2022/02/10 23:39:25;;;;;;;3.78;0.95;;;-0.40;99.90;;;;;;5032626;28;20099;-67
2022/02/10 23:42:01;;;;;;;3.70;1.30;;;-0.40;99.90;;;;;;5032849;28;20079;-67
2022/02/10 23:44:34;;;;;;;3.78;1.10;;;-0.40;99.90;;;;;;5032793;28;20112;-67
2022/02/10 23:47:03;;;;;;;4.65;1.60;;;-0.40;99.90;;;;;;5032567;28;20039;-66
2022/02/10 23:49:31;;;;;;;4.88;1.05;;;-0.40;99.90;;;;;;5032628;28;20018;-67
2022/02/10 23:52:02;;;;;;;3.30;1.40;;;-0.40;99.90;;;;;;5031064;28;20091;-66
2022/02/10 23:54:32;;;;;;;4.45;1.20;;;-0.50;99.90;;;;;;5032876;28;20029;-66
2022/02/10 23:57:14;;;;;;;4.87;1.10;;;-0.50;99.90;;;;;;5032721;28;20028;-70
2022/02/10 23:59:58;;;;;;;5.97;1.20;;;-0.50;99.90;;;;;;5032782;28;20515;-69
